sensor_id;sensor_type;location;lat;lon;timestamp;P1;durP1;ratioP1;P2;durP2;ratioP2
50880;SDS011;36858;47.832;-3.800;2024-02-23T00:02:14;9.17;;;2.47;;
50880;SDS011;36858;47.832;-3.800;2024-02-23T00:04:41;5.50;;;1.57;;
50880;SDS011;36858;47.832;-3.800;2024-02-23T00:07:08;12.57;;;2.77;;
50880;SDS011;36858;47.832;-3.800;2024-02-23T00:09:35;4.37;;;1.50;;
50880;SDS011;36858;47.832;-3.800;2024-02-23T00:12:03;8.63;;;1.90;;
50880;SDS011;36858;47.832;-3.800;2024-02-23T00:14:30;10.73;;;2.83;;
50880;SDS011;36858;47.832;-3.800;2024-02-23T00:16:59;9.90;;;2.20;;
50880;SDS011;36858;47.832;-3.800;2024-02-23T00:19:29;8.17;;;1.80;;
50880;SDS011;36858;47.832;-3.800;2024-02-23T00:21:57;9.87;;;2.20;;
50880;SDS011;36858;47.832;-3.800;2024-02-23T00:24:26;6.93;;;1.80;;
50880;SDS011;36858;47.832;-3.800;2024-02-23T00:26:53;6.27;;;1.27;;
50880;SDS011;36858;47.832;-3.800;2024-02-23T00:29:20;9.97;;;2.17;;
50880;SDS011;36858;47.832;-3.800;2024-02-23T00:31:48;7.17;;;2.00;;
50880;SDS011;36858;47.832;-3.800;2024-02-23T00:34:15;9.37;;;2.73;;
50880;SDS011;36858;47.832;-3.800;2024-02-23T00:36:42;7.20;;;2.47;;
50880;SDS011;36858;47.832;-3.800;2024-02-23T00:39:11;8.83;;;1.80;;
50880;SDS011;36858;47.832;-3.800;2024-02-23T00:41:38;7.37;;;1.80;;
50880;SDS011;36858;47.832;-3.800;2024-02-23T00:44:05;9.57;;;2.00;;
50880;SDS011;36858;47.832;-3.800;2024-02-23T00:46:32;6.87;;;1.70;;
50880;SDS011;36858;47.832;-3.800;2024-02-23T00:49:00;9.27;;;2.00;;
50880;SDS011;36858;47.832;-3.800;2024-02-23T00:51:28;10.33;;;2.00;;
50880;SDS011;36858;47.832;-3.800;2024-02-23T00:53:54;5.80;;;1.53;;
50880;SDS011;36858;47.832;-3.800;2024-02-23T00:56:21;11.57;;;1.70;;
50880;SDS011;36858;47.832;-3.800;2024-02-23T00:58:58;7.03;;;1.60;;
50880;SDS011;36858;47.832;-3.800;2024-02-23T01:01:25;8.93;;;2.20;;
50880;SDS011;36858;47.832;-3.800;2024-02-23T01:03:53;10.63;;;2.10;;
50880;SDS011;36858;47.832;-3.800;2024-02-23T01:06:20;8.13;;;1.60;;
50880;SDS011;36858;47.832;-3.800;2024-02-23T01:08:47;6.37;;;1.60;;
50880;SDS011;36858;47.832;-3.800;2024-02-23T01:11:14;8.40;;;1.67;;
50880;SDS011;36858;47.832;-3.800;2024-02-23T01:13:41;5.60;;;1.40;;
50880;SDS011;36858;47.832;-3.800;2024-02-23T01:16:08;4.07;;;1.30;;
50880;SDS011;36858;47.832;-3.800;2024-02-23T01:18:35;4.73;;;1.57;;
50880;SDS011;36858;47.832;-3.800;2024-02-23T01:21:03;3.50;;;0.70;;
50880;SDS011;36858;47.832;-3.800;2024-02-23T01:23:29;6.27;;;1.57;;
50880;SDS011;36858;47.832;-3.800;2024-02-23T01:25:57;5.20;;;0.70;;
50880;SDS011;36858;47.832;-3.800;2024-02-23T01:28:26;2.40;;;1.47;;
50880;SDS011;36858;47.832;-3.800;2024-02-23T01:30:53;2.57;;;1.00;;
50880;SDS011;36858;47.832;-3.800;2024-02-23T01:33:20;3.37;;;0.70;;
50880;SDS011;36858;47.832;-3.800;2024-02-23T01:35:47;2.17;;;0.70;;
50880;SDS011;36858;47.832;-3.800;2024-02-23T01:38:14;4.70;;;1.20;;
50880;SDS011;36858;47.832;-3.800;2024-02-23T01:40:47;3.97;;;1.07;;
50880;SDS011;36858;47.832;-3.800;2024-02-23T01:43:14;3.63;;;1.00;;
50880;SDS011;36858;47.832;-3.800;2024-02-23T01:45:41;7.00;;;1.50;;
50880;SDS011;36858;47.832;-3.800;2024-02-23T01:48:08;3.60;;;0.87;;
50880;SDS011;36858;47.832;-3.800;2024-02-23T01:50:35;6.00;;;1.40;;
50880;SDS011;36858;47.832;-3.800;2024-02-23T01:53:03;3.53;;;1.00;;
50880;SDS011;36858;47.832;-3.800;2024-02-23T01:55:30;7.47;;;1.57;;
50880;SDS011;36858;47.832;-3.800;2024-02-23T01:58:01;4.03;;;0.90;;
50880;SDS011;36858;47.832;-3.800;2024-02-23T02:00:33;7.07;;;1.23;;
50880;SDS011;36858;47.832;-3.800;2024-02-23T02:03:02;5.73;;;0.97;;
50880;SDS011;36858;47.832;-3.800;2024-02-23T02:05:29;3.53;;;0.80;;
50880;SDS011;36858;47.832;-3.800;2024-02-23T02:07:56;6.43;;;0.93;;
50880;SDS011;36858;47.832;-3.800;2024-02-23T02:10:27;4.33;;;1.10;;
50880;SDS011;36858;47.832;-3.800;2024-02-23T02:12:54;6.07;;;1.37;;
50880;SDS011;36858;47.832;-3.800;2024-02-23T02:15:21;7.73;;;1.10;;
50880;SDS011;36858;47.832;-3.800;2024-02-23T02:17:48;2.70;;;1.00;;
50880;SDS011;36858;47.832;-3.800;2024-02-23T02:20:17;3.43;;;1.03;;
50880;SDS011;36858;47.832;-3.800;2024-02-23T02:22:45;2.20;;;1.00;;
50880;SDS011;36858;47.832;-3.800;2024-02-23T02:25:13;6.00;;;1.43;;
50880;SDS011;36858;47.832;-3.800;2024-02-23T02:27:42;6.27;;;1.00;;
50880;SDS011;36858;47.832;-3.800;2024-02-23T02:30:12;3.60;;;1.00;;
50880;SDS011;36858;47.832;-3.800;2024-02-23T02:32:39;4.83;;;1.00;;
50880;SDS011;36858;47.832;-3.800;2024-02-23T02:35:07;7.03;;;1.50;;
50880;SDS011;36858;47.832;-3.800;2024-02-23T02:37:34;3.97;;;1.33;;
50880;SDS011;36858;47.832;-3.800;2024-02-23T02:40:01;3.13;;;0.70;;
50880;SDS011;36858;47.832;-3.800;2024-02-23T02:42:29;3.50;;;0.97;;
50880;SDS011;36858;47.832;-3.800;2024-02-23T02:44:55;1.80;;;0.60;;
50880;SDS011;36858;47.832;-3.800;2024-02-23T02:47:23;4.30;;;0.90;;
50880;SDS011;36858;47.832;-3.800;2024-02-23T02:49:51;6.47;;;0.90;;
50880;SDS011;36858;47.832;-3.800;2024-02-23T02:52:18;5.53;;;1.00;;
50880;SDS011;36858;47.832;-3.800;2024-02-23T02:54:47;2.77;;;0.70;;
50880;SDS011;36858;47.832;-3.800;2024-02-23T02:57:14;4.43;;;1.13;;
50880;SDS011;36858;47.832;-3.800;2024-02-23T02:59:41;6.13;;;1.10;;
50880;SDS011;36858;47.832;-3.800;2024-02-23T03:02:08;2.93;;;0.50;;
50880;SDS011;36858;47.832;-3.800;2024-02-23T03:04:35;2.10;;;0.60;;
50880;SDS011;36858;47.832;-3.800;2024-02-23T03:07:02;1.70;;;0.63;;
50880;SDS011;36858;47.832;-3.800;2024-02-23T03:09:29;2.90;;;0.70;;
50880;SDS011;36858;47.832;-3.800;2024-02-23T03:11:56;4.00;;;0.60;;
50880;SDS011;36858;47.832;-3.800;2024-02-23T03:14:23;1.13;;;0.60;;
50880;SDS011;36858;47.832;-3.800;2024-02-23T03:16:50;2.03;;;0.60;;
50880;SDS011;36858;47.832;-3.800;2024-02-23T03:19:17;4.67;;;0.90;;
50880;SDS011;36858;47.832;-3.800;2024-02-23T03:21:49;2.73;;;1.20;;
50880;SDS011;36858;47.832;-3.800;2024-02-23T03:24:16;3.50;;;0.90;;
50880;SDS011;36858;47.832;-3.800;2024-02-23T03:26:43;3.03;;;0.70;;
50880;SDS011;36858;47.832;-3.800;2024-02-23T03:29:10;3.93;;;0.83;;
50880;SDS011;36858;47.832;-3.800;2024-02-23T03:31:37;3.77;;;0.80;;
50880;SDS011;36858;47.832;-3.800;2024-02-23T03:34:04;2.47;;;0.80;;
50880;SDS011;36858;47.832;-3.800;2024-02-23T03:36:31;3.53;;;1.03;;
50880;SDS011;36858;47.832;-3.800;2024-02-23T03:38:58;4.97;;;1.10;;
50880;SDS011;36858;47.832;-3.800;2024-02-23T03:41:24;3.83;;;1.43;;
50880;SDS011;36858;47.832;-3.800;2024-02-23T03:43:51;6.50;;;2.10;;
50880;SDS011;36858;47.832;-3.800;2024-02-23T03:46:18;4.63;;;1.40;;
50880;SDS011;36858;47.832;-3.800;2024-02-23T03:48:46;5.83;;;1.60;;
50880;SDS011;36858;47.832;-3.800;2024-02-23T03:51:13;4.80;;;1.47;;
50880;SDS011;36858;47.832;-3.800;2024-02-23T03:53:40;4.23;;;1.20;;
50880;SDS011;36858;47.832;-3.800;2024-02-23T03:56:07;7.07;;;1.27;;
50880;SDS011;36858;47.832;-3.800;2024-02-23T03:58:35;3.07;;;0.90;;
50880;SDS011;36858;47.832;-3.800;2024-02-23T04:01:02;4.77;;;1.17;;
50880;SDS011;36858;47.832;-3.800;2024-02-23T04:03:29;4.43;;;1.20;;
50880;SDS011;36858;47.832;-3.800;2024-02-23T04:05:55;7.87;;;1.53;;
50880;SDS011;36858;47.832;-3.800;2024-02-23T04:08:22;6.07;;;1.53;;
50880;SDS011;36858;47.832;-3.800;2024-02-23T04:10:49;8.07;;;1.37;;
50880;SDS011;36858;47.832;-3.800;2024-02-23T04:13:16;5.60;;;1.07;;
50880;SDS011;36858;47.832;-3.800;2024-02-23T04:15:44;5.33;;;1.00;;
50880;SDS011;36858;47.832;-3.800;2024-02-23T04:18:11;1.83;;;0.67;;
50880;SDS011;36858;47.832;-3.800;2024-02-23T04:20:38;3.50;;;0.80;;
50880;SDS011;36858;47.832;-3.800;2024-02-23T04:23:05;2.30;;;1.00;;
50880;SDS011;36858;47.832;-3.800;2024-02-23T04:25:32;2.87;;;0.80;;
50880;SDS011;36858;47.832;-3.800;2024-02-23T04:27:58;4.10;;;0.87;;
50880;SDS011;36858;47.832;-3.800;2024-02-23T04:30:25;4.97;;;0.80;;
50880;SDS011;36858;47.832;-3.800;2024-02-23T04:32:52;4.37;;;0.77;;
50880;SDS011;36858;47.832;-3.800;2024-02-23T04:35:19;4.13;;;1.37;;
50880;SDS011;36858;47.832;-3.800;2024-02-23T04:37:46;3.70;;;0.80;;
50880;SDS011;36858;47.832;-3.800;2024-02-23T04:40:15;3.97;;;1.10;;
50880;SDS011;36858;47.832;-3.800;2024-02-23T04:42:43;3.27;;;0.80;;
50880;SDS011;36858;47.832;-3.800;2024-02-23T04:45:11;1.50;;;1.10;;
50880;SDS011;36858;47.832;-3.800;2024-02-23T04:47:38;3.20;;;1.03;;
50880;SDS011;36858;47.832;-3.800;2024-02-23T04:50:07;3.23;;;1.60;;
50880;SDS011;36858;47.832;-3.800;2024-02-23T04:52:35;3.07;;;1.50;;
50880;SDS011;36858;47.832;-3.800;2024-02-23T04:55:02;3.10;;;0.87;;
50880;SDS011;36858;47.832;-3.800;2024-02-23T04:57:29;3.97;;;0.97;;
50880;SDS011;36858;47.832;-3.800;2024-02-23T04:59:55;2.20;;;0.97;;
50880;SDS011;36858;47.832;-3.800;2024-02-23T05:02:22;4.03;;;0.80;;
50880;SDS011;36858;47.832;-3.800;2024-02-23T05:04:49;4.37;;;0.83;;
50880;SDS011;36858;47.832;-3.800;2024-02-23T05:07:16;2.47;;;1.00;;
50880;SDS011;36858;47.832;-3.800;2024-02-23T05:09:43;6.47;;;0.77;;
50880;SDS011;36858;47.832;-3.800;2024-02-23T05:12:10;4.87;;;0.90;;
50880;SDS011;36858;47.832;-3.800;2024-02-23T05:14:37;5.50;;;1.00;;
50880;SDS011;36858;47.832;-3.800;2024-02-23T05:17:04;7.20;;;1.50;;
50880;SDS011;36858;47.832;-3.800;2024-02-23T05:19:31;4.47;;;1.10;;
50880;SDS011;36858;47.832;-3.800;2024-02-23T05:21:58;11.10;;;1.83;;
50880;SDS011;36858;47.832;-3.800;2024-02-23T05:24:25;2.37;;;0.97;;
50880;SDS011;36858;47.832;-3.800;2024-02-23T05:26:52;8.00;;;1.40;;
50880;SDS011;36858;47.832;-3.800;2024-02-23T05:29:19;7.60;;;2.70;;
50880;SDS011;36858;47.832;-3.800;2024-02-23T05:31:49;5.93;;;1.97;;
50880;SDS011;36858;47.832;-3.800;2024-02-23T05:34:18;6.10;;;1.07;;
50880;SDS011;36858;47.832;-3.800;2024-02-23T05:36:45;6.33;;;1.20;;
50880;SDS011;36858;47.832;-3.800;2024-02-23T05:39:13;7.37;;;1.77;;
50880;SDS011;36858;47.832;-3.800;2024-02-23T05:41:41;1.47;;;0.53;;
50880;SDS011;36858;47.832;-3.800;2024-02-23T05:44:09;2.40;;;0.80;;
50880;SDS011;36858;47.832;-3.800;2024-02-23T05:46:36;1.67;;;0.77;;
50880;SDS011;36858;47.832;-3.800;2024-02-23T05:49:03;4.23;;;0.80;;
50880;SDS011;36858;47.832;-3.800;2024-02-23T05:51:33;5.00;;;1.43;;
50880;SDS011;36858;47.832;-3.800;2024-02-23T05:54:01;2.90;;;0.80;;
50880;SDS011;36858;47.832;-3.800;2024-02-23T05:56:28;1.57;;;0.70;;
50880;SDS011;36858;47.832;-3.800;2024-02-23T05:58:55;2.27;;;0.73;;
50880;SDS011;36858;47.832;-3.800;2024-02-23T06:01:22;6.53;;;1.17;;
50880;SDS011;36858;47.832;-3.800;2024-02-23T06:03:50;2.93;;;0.77;;
50880;SDS011;36858;47.832;-3.800;2024-02-23T06:06:16;4.53;;;1.20;;
50880;SDS011;36858;47.832;-3.800;2024-02-23T06:08:44;6.00;;;0.80;;
50880;SDS011;36858;47.832;-3.800;2024-02-23T06:11:11;5.77;;;1.00;;
50880;SDS011;36858;47.832;-3.800;2024-02-23T06:13:38;2.97;;;0.70;;
50880;SDS011;36858;47.832;-3.800;2024-02-23T06:16:05;3.10;;;1.00;;
50880;SDS011;36858;47.832;-3.800;2024-02-23T06:18:36;2.93;;;0.60;;
50880;SDS011;36858;47.832;-3.800;2024-02-23T06:21:10;2.53;;;0.77;;
50880;SDS011;36858;47.832;-3.800;2024-02-23T06:23:46;2.70;;;0.77;;
50880;SDS011;36858;47.832;-3.800;2024-02-23T06:26:13;3.27;;;0.93;;
50880;SDS011;36858;47.832;-3.800;2024-02-23T06:28:40;3.50;;;0.93;;
50880;SDS011;36858;47.832;-3.800;2024-02-23T06:31:09;2.70;;;0.73;;
50880;SDS011;36858;47.832;-3.800;2024-02-23T06:33:36;3.37;;;1.20;;
50880;SDS011;36858;47.832;-3.800;2024-02-23T06:36:04;3.13;;;0.87;;
50880;SDS011;36858;47.832;-3.800;2024-02-23T06:38:31;4.43;;;1.20;;
50880;SDS011;36858;47.832;-3.800;2024-02-23T06:40:58;3.27;;;0.93;;
50880;SDS011;36858;47.832;-3.800;2024-02-23T06:43:25;4.50;;;1.00;;
50880;SDS011;36858;47.832;-3.800;2024-02-23T06:45:55;3.17;;;0.90;;
50880;SDS011;36858;47.832;-3.800;2024-02-23T06:48:23;3.27;;;1.37;;
50880;SDS011;36858;47.832;-3.800;2024-02-23T06:50:55;3.60;;;1.03;;
50880;SDS011;36858;47.832;-3.800;2024-02-23T06:53:24;4.93;;;0.90;;
50880;SDS011;36858;47.832;-3.800;2024-02-23T06:55:51;3.23;;;0.83;;
50880;SDS011;36858;47.832;-3.800;2024-02-23T06:58:18;2.77;;;1.00;;
50880;SDS011;36858;47.832;-3.800;2024-02-23T07:00:45;5.73;;;1.33;;
50880;SDS011;36858;47.832;-3.800;2024-02-23T07:03:12;4.27;;;1.17;;
50880;SDS011;36858;47.832;-3.800;2024-02-23T07:05:40;4.53;;;1.40;;
50880;SDS011;36858;47.832;-3.800;2024-02-23T07:08:12;5.93;;;1.37;;
50880;SDS011;36858;47.832;-3.800;2024-02-23T07:10:39;4.20;;;1.47;;
50880;SDS011;36858;47.832;-3.800;2024-02-23T07:13:06;5.63;;;2.10;;
50880;SDS011;36858;47.832;-3.800;2024-02-23T07:15:34;4.93;;;1.27;;
50880;SDS011;36858;47.832;-3.800;2024-02-23T07:18:02;6.83;;;2.10;;
50880;SDS011;36858;47.832;-3.800;2024-02-23T07:20:30;5.20;;;1.80;;
50880;SDS011;36858;47.832;-3.800;2024-02-23T07:22:57;8.13;;;1.97;;
50880;SDS011;36858;47.832;-3.800;2024-02-23T07:25:24;7.93;;;2.13;;
50880;SDS011;36858;47.832;-3.800;2024-02-23T07:27:50;11.93;;;2.27;;
50880;SDS011;36858;47.832;-3.800;2024-02-23T07:30:17;8.77;;;1.50;;
50880;SDS011;36858;47.832;-3.800;2024-02-23T07:32:44;7.43;;;1.73;;
50880;SDS011;36858;47.832;-3.800;2024-02-23T07:35:18;6.60;;;1.60;;
50880;SDS011;36858;47.832;-3.800;2024-02-23T07:37:45;6.07;;;1.50;;
50880;SDS011;36858;47.832;-3.800;2024-02-23T07:40:12;7.60;;;1.73;;
50880;SDS011;36858;47.832;-3.800;2024-02-23T07:42:43;8.27;;;1.33;;
50880;SDS011;36858;47.832;-3.800;2024-02-23T07:45:10;6.53;;;1.30;;
50880;SDS011;36858;47.832;-3.800;2024-02-23T07:47:37;7.07;;;1.30;;
50880;SDS011;36858;47.832;-3.800;2024-02-23T07:50:04;5.83;;;1.37;;
50880;SDS011;36858;47.832;-3.800;2024-02-23T07:52:32;4.07;;;1.07;;
50880;SDS011;36858;47.832;-3.800;2024-02-23T07:54:59;2.93;;;1.20;;
50880;SDS011;36858;47.832;-3.800;2024-02-23T07:57:29;6.20;;;1.30;;
50880;SDS011;36858;47.832;-3.800;2024-02-23T07:59:57;4.43;;;0.83;;
50880;SDS011;36858;47.832;-3.800;2024-02-23T08:02:24;2.53;;;0.80;;
50880;SDS011;36858;47.832;-3.800;2024-02-23T08:04:51;3.20;;;0.87;;
50880;SDS011;36858;47.832;-3.800;2024-02-23T08:07:19;4.80;;;0.90;;
50880;SDS011;36858;47.832;-3.800;2024-02-23T08:09:46;5.37;;;1.20;;
50880;SDS011;36858;47.832;-3.800;2024-02-23T08:12:13;3.40;;;1.07;;
50880;SDS011;36858;47.832;-3.800;2024-02-23T08:14:41;2.53;;;0.67;;
50880;SDS011;36858;47.832;-3.800;2024-02-23T08:17:09;2.67;;;1.60;;
50880;SDS011;36858;47.832;-3.800;2024-02-23T08:19:37;4.30;;;1.40;;
50880;SDS011;36858;47.832;-3.800;2024-02-23T08:22:04;5.27;;;0.80;;
50880;SDS011;36858;47.832;-3.800;2024-02-23T08:24:31;4.77;;;1.33;;
50880;SDS011;36858;47.832;-3.800;2024-02-23T08:26:58;4.73;;;1.30;;
50880;SDS011;36858;47.832;-3.800;2024-02-23T08:29:25;7.33;;;2.17;;
50880;SDS011;36858;47.832;-3.800;2024-02-23T08:31:52;13.40;;;1.60;;
50880;SDS011;36858;47.832;-3.800;2024-02-23T08:34:19;7.33;;;2.00;;
50880;SDS011;36858;47.832;-3.800;2024-02-23T08:36:46;6.97;;;1.30;;
50880;SDS011;36858;47.832;-3.800;2024-02-23T08:39:13;9.50;;;1.20;;
50880;SDS011;36858;47.832;-3.800;2024-02-23T08:41:40;6.80;;;1.10;;
50880;SDS011;36858;47.832;-3.800;2024-02-23T08:44:07;3.53;;;0.97;;
50880;SDS011;36858;47.832;-3.800;2024-02-23T08:46:34;4.13;;;0.80;;
50880;SDS011;36858;47.832;-3.800;2024-02-23T08:49:01;4.80;;;1.00;;
50880;SDS011;36858;47.832;-3.800;2024-02-23T08:51:28;3.67;;;1.30;;
50880;SDS011;36858;47.832;-3.800;2024-02-23T08:53:55;5.30;;;1.20;;
50880;SDS011;36858;47.832;-3.800;2024-02-23T08:56:26;5.00;;;0.97;;
50880;SDS011;36858;47.832;-3.800;2024-02-23T08:58:53;3.67;;;1.63;;
50880;SDS011;36858;47.832;-3.800;2024-02-23T09:01:20;6.67;;;1.27;;
50880;SDS011;36858;47.832;-3.800;2024-02-23T09:03:47;9.83;;;3.33;;
50880;SDS011;36858;47.832;-3.800;2024-02-23T09:06:14;5.30;;;1.57;;
50880;SDS011;36858;47.832;-3.800;2024-02-23T09:08:41;7.80;;;1.30;;
50880;SDS011;36858;47.832;-3.800;2024-02-23T09:11:09;3.97;;;1.20;;
50880;SDS011;36858;47.832;-3.800;2024-02-23T09:13:38;9.27;;;1.20;;
50880;SDS011;36858;47.832;-3.800;2024-02-23T09:16:05;6.70;;;1.13;;
50880;SDS011;36858;47.832;-3.800;2024-02-23T09:18:32;8.07;;;1.57;;
50880;SDS011;36858;47.832;-3.800;2024-02-23T09:20:59;9.50;;;2.13;;
50880;SDS011;36858;47.832;-3.800;2024-02-23T09:23:27;11.03;;;2.13;;
50880;SDS011;36858;47.832;-3.800;2024-02-23T09:25:53;5.00;;;1.80;;
50880;SDS011;36858;47.832;-3.800;2024-02-23T09:28:20;11.27;;;1.83;;
50880;SDS011;36858;47.832;-3.800;2024-02-23T09:30:47;5.27;;;1.43;;
50880;SDS011;36858;47.832;-3.800;2024-02-23T09:33:14;10.07;;;1.83;;
50880;SDS011;36858;47.832;-3.800;2024-02-23T09:35:41;7.17;;;1.93;;
50880;SDS011;36858;47.832;-3.800;2024-02-23T09:38:08;8.70;;;2.13;;
50880;SDS011;36858;47.832;-3.800;2024-02-23T09:40:35;9.33;;;1.57;;
50880;SDS011;36858;47.832;-3.800;2024-02-23T09:43:02;10.77;;;2.20;;
50880;SDS011;36858;47.832;-3.800;2024-02-23T09:45:29;10.13;;;1.87;;
50880;SDS011;36858;47.832;-3.800;2024-02-23T09:47:57;10.03;;;2.43;;
50880;SDS011;36858;47.832;-3.800;2024-02-23T09:50:25;5.73;;;1.93;;
50880;SDS011;36858;47.832;-3.800;2024-02-23T09:52:52;7.87;;;2.13;;
50880;SDS011;36858;47.832;-3.800;2024-02-23T09:55:22;8.17;;;2.00;;
50880;SDS011;36858;47.832;-3.800;2024-02-23T09:57:51;6.50;;;1.90;;
50880;SDS011;36858;47.832;-3.800;2024-02-23T10:00:21;3.37;;;1.57;;
50880;SDS011;36858;47.832;-3.800;2024-02-23T10:02:50;3.50;;;1.37;;
50880;SDS011;36858;47.832;-3.800;2024-02-23T10:05:17;9.10;;;1.57;;
50880;SDS011;36858;47.832;-3.800;2024-02-23T10:07:45;8.03;;;1.77;;
50880;SDS011;36858;47.832;-3.800;2024-02-23T10:10:13;14.03;;;3.37;;
50880;SDS011;36858;47.832;-3.800;2024-02-23T10:12:40;7.50;;;2.50;;
50880;SDS011;36858;47.832;-3.800;2024-02-23T10:15:07;3.67;;;1.20;;
50880;SDS011;36858;47.832;-3.800;2024-02-23T10:17:36;5.63;;;1.87;;
50880;SDS011;36858;47.832;-3.800;2024-02-23T10:20:03;12.07;;;3.20;;
50880;SDS011;36858;47.832;-3.800;2024-02-23T10:22:31;8.27;;;1.93;;
50880;SDS011;36858;47.832;-3.800;2024-02-23T10:24:58;9.27;;;2.30;;
50880;SDS011;36858;47.832;-3.800;2024-02-23T10:27:26;7.83;;;1.67;;
50880;SDS011;36858;47.832;-3.800;2024-02-23T10:29:54;8.80;;;1.90;;
50880;SDS011;36858;47.832;-3.800;2024-02-23T10:32:21;4.47;;;1.57;;
50880;SDS011;36858;47.832;-3.800;2024-02-23T10:34:50;9.67;;;2.00;;
50880;SDS011;36858;47.832;-3.800;2024-02-23T10:37:20;8.83;;;1.63;;
50880;SDS011;36858;47.832;-3.800;2024-02-23T10:39:52;6.23;;;1.83;;
50880;SDS011;36858;47.832;-3.800;2024-02-23T10:42:20;6.10;;;1.63;;
50880;SDS011;36858;47.832;-3.800;2024-02-23T10:44:51;11.87;;;2.20;;
50880;SDS011;36858;47.832;-3.800;2024-02-23T10:47:19;5.23;;;2.17;;
50880;SDS011;36858;47.832;-3.800;2024-02-23T10:49:48;10.53;;;2.23;;
50880;SDS011;36858;47.832;-3.800;2024-02-23T10:52:15;7.37;;;1.73;;
50880;SDS011;36858;47.832;-3.800;2024-02-23T10:54:45;4.53;;;1.30;;
50880;SDS011;36858;47.832;-3.800;2024-02-23T10:57:13;4.50;;;1.60;;
50880;SDS011;36858;47.832;-3.800;2024-02-23T10:59:46;4.53;;;1.50;;
50880;SDS011;36858;47.832;-3.800;2024-02-23T11:02:14;5.47;;;1.70;;
50880;SDS011;36858;47.832;-3.800;2024-02-23T11:04:45;6.80;;;1.80;;
50880;SDS011;36858;47.832;-3.800;2024-02-23T11:07:20;5.10;;;1.70;;
50880;SDS011;36858;47.832;-3.800;2024-02-23T11:09:54;5.10;;;1.17;;
50880;SDS011;36858;47.832;-3.800;2024-02-23T11:12:25;4.70;;;1.50;;
50880;SDS011;36858;47.832;-3.800;2024-02-23T11:14:56;4.30;;;1.50;;
50880;SDS011;36858;47.832;-3.800;2024-02-23T11:17:29;6.70;;;1.80;;
50880;SDS011;36858;47.832;-3.800;2024-02-23T11:19:57;7.93;;;1.73;;
50880;SDS011;36858;47.832;-3.800;2024-02-23T11:22:25;5.67;;;1.40;;
50880;SDS011;36858;47.832;-3.800;2024-02-23T11:25:04;5.57;;;1.10;;
50880;SDS011;36858;47.832;-3.800;2024-02-23T11:27:33;4.17;;;1.07;;
50880;SDS011;36858;47.832;-3.800;2024-02-23T11:30:04;5.30;;;1.23;;
50880;SDS011;36858;47.832;-3.800;2024-02-23T11:32:39;4.37;;;1.27;;
50880;SDS011;36858;47.832;-3.800;2024-02-23T11:35:08;6.70;;;1.20;;
50880;SDS011;36858;47.832;-3.800;2024-02-23T11:37:44;3.70;;;1.40;;
50880;SDS011;36858;47.832;-3.800;2024-02-23T11:40:15;4.53;;;1.23;;
50880;SDS011;36858;47.832;-3.800;2024-02-23T11:42:44;4.03;;;1.23;;
50880;SDS011;36858;47.832;-3.800;2024-02-23T11:45:11;5.77;;;1.10;;
50880;SDS011;36858;47.832;-3.800;2024-02-23T11:47:38;4.47;;;1.30;;
50880;SDS011;36858;47.832;-3.800;2024-02-23T11:50:09;3.50;;;1.20;;
50880;SDS011;36858;47.832;-3.800;2024-02-23T11:52:37;7.20;;;1.23;;
50880;SDS011;36858;47.832;-3.800;2024-02-23T11:55:05;3.40;;;1.33;;
50880;SDS011;36858;47.832;-3.800;2024-02-23T11:57:33;5.67;;;1.40;;
50880;SDS011;36858;47.832;-3.800;2024-02-23T12:00:12;7.70;;;1.53;;
50880;SDS011;36858;47.832;-3.800;2024-02-23T12:02:40;6.90;;;1.60;;
50880;SDS011;36858;47.832;-3.800;2024-02-23T12:05:07;9.50;;;1.63;;
50880;SDS011;36858;47.832;-3.800;2024-02-23T12:07:35;6.33;;;1.53;;
50880;SDS011;36858;47.832;-3.800;2024-02-23T12:10:02;3.63;;;1.20;;
50880;SDS011;36858;47.832;-3.800;2024-02-23T12:12:30;6.67;;;0.93;;
50880;SDS011;36858;47.832;-3.800;2024-02-23T12:14:57;7.13;;;1.50;;
50880;SDS011;36858;47.832;-3.800;2024-02-23T12:17:25;2.57;;;1.07;;
50880;SDS011;36858;47.832;-3.800;2024-02-23T12:20:02;4.20;;;1.00;;
50880;SDS011;36858;47.832;-3.800;2024-02-23T12:22:29;2.27;;;0.67;;
50880;SDS011;36858;47.832;-3.800;2024-02-23T12:24:59;3.17;;;0.87;;
50880;SDS011;36858;47.832;-3.800;2024-02-23T12:27:26;3.53;;;0.77;;
50880;SDS011;36858;47.832;-3.800;2024-02-23T12:29:54;3.40;;;0.63;;
50880;SDS011;36858;47.832;-3.800;2024-02-23T12:32:21;2.30;;;1.10;;
50880;SDS011;36858;47.832;-3.800;2024-02-23T12:34:48;3.07;;;0.73;;
50880;SDS011;36858;47.832;-3.800;2024-02-23T12:37:15;2.17;;;0.63;;
50880;SDS011;36858;47.832;-3.800;2024-02-23T12:39:43;2.77;;;1.00;;
50880;SDS011;36858;47.832;-3.800;2024-02-23T12:42:10;5.13;;;1.20;;
50880;SDS011;36858;47.832;-3.800;2024-02-23T12:44:37;3.10;;;1.40;;
50880;SDS011;36858;47.832;-3.800;2024-02-23T12:47:04;4.10;;;1.10;;
50880;SDS011;36858;47.832;-3.800;2024-02-23T12:49:31;4.70;;;1.13;;
50880;SDS011;36858;47.832;-3.800;2024-02-23T12:51:58;4.03;;;1.07;;
50880;SDS011;36858;47.832;-3.800;2024-02-23T12:54:25;5.70;;;1.57;;
50880;SDS011;36858;47.832;-3.800;2024-02-23T12:56:52;1.00;;;0.60;;
50880;SDS011;36858;47.832;-3.800;2024-02-23T12:59:19;4.03;;;0.90;;
50880;SDS011;36858;47.832;-3.800;2024-02-23T13:01:46;5.10;;;0.90;;
50880;SDS011;36858;47.832;-3.800;2024-02-23T13:04:17;3.73;;;0.87;;
50880;SDS011;36858;47.832;-3.800;2024-02-23T13:06:44;3.27;;;0.83;;
50880;SDS011;36858;47.832;-3.800;2024-02-23T13:09:11;2.87;;;0.80;;
50880;SDS011;36858;47.832;-3.800;2024-02-23T13:11:39;3.20;;;1.03;;
50880;SDS011;36858;47.832;-3.800;2024-02-23T13:14:06;2.97;;;0.90;;
50880;SDS011;36858;47.832;-3.800;2024-02-23T13:16:33;3.10;;;0.80;;
50880;SDS011;36858;47.832;-3.800;2024-02-23T13:19:00;2.80;;;0.73;;
50880;SDS011;36858;47.832;-3.800;2024-02-23T13:21:27;2.57;;;1.03;;
50880;SDS011;36858;47.832;-3.800;2024-02-23T13:23:54;3.37;;;1.10;;
50880;SDS011;36858;47.832;-3.800;2024-02-23T13:26:21;6.03;;;1.00;;
50880;SDS011;36858;47.832;-3.800;2024-02-23T13:28:48;2.87;;;0.83;;
50880;SDS011;36858;47.832;-3.800;2024-02-23T13:31:15;5.47;;;1.23;;
50880;SDS011;36858;47.832;-3.800;2024-02-23T13:33:43;2.30;;;0.70;;
50880;SDS011;36858;47.832;-3.800;2024-02-23T13:36:11;2.83;;;0.70;;
50880;SDS011;36858;47.832;-3.800;2024-02-23T13:38:38;4.90;;;1.20;;
50880;SDS011;36858;47.832;-3.800;2024-02-23T13:41:06;2.33;;;0.97;;
50880;SDS011;36858;47.832;-3.800;2024-02-23T13:43:33;3.63;;;1.20;;
50880;SDS011;36858;47.832;-3.800;2024-02-23T13:46:00;5.60;;;0.93;;
50880;SDS011;36858;47.832;-3.800;2024-02-23T13:48:30;4.97;;;1.10;;
50880;SDS011;36858;47.832;-3.800;2024-02-23T13:50:58;1.80;;;0.80;;
50880;SDS011;36858;47.832;-3.800;2024-02-23T13:53:30;1.80;;;0.80;;
50880;SDS011;36858;47.832;-3.800;2024-02-23T13:55:58;8.47;;;1.23;;
50880;SDS011;36858;47.832;-3.800;2024-02-23T13:58:26;4.07;;;1.20;;
50880;SDS011;36858;47.832;-3.800;2024-02-23T14:00:54;3.10;;;0.70;;
50880;SDS011;36858;47.832;-3.800;2024-02-23T14:03:21;1.23;;;0.50;;
50880;SDS011;36858;47.832;-3.800;2024-02-23T14:05:50;3.50;;;0.80;;
50880;SDS011;36858;47.832;-3.800;2024-02-23T14:08:17;3.53;;;0.60;;
50880;SDS011;36858;47.832;-3.800;2024-02-23T14:10:44;0.90;;;0.70;;
50880;SDS011;36858;47.832;-3.800;2024-02-23T14:13:12;5.40;;;0.80;;
50880;SDS011;36858;47.832;-3.800;2024-02-23T14:15:41;3.37;;;1.13;;
50880;SDS011;36858;47.832;-3.800;2024-02-23T14:18:08;1.83;;;0.63;;
50880;SDS011;36858;47.832;-3.800;2024-02-23T14:20:35;1.50;;;0.60;;
50880;SDS011;36858;47.832;-3.800;2024-02-23T14:23:02;1.90;;;0.70;;
50880;SDS011;36858;47.832;-3.800;2024-02-23T14:25:29;5.13;;;0.90;;
50880;SDS011;36858;47.832;-3.800;2024-02-23T14:27:56;4.37;;;1.33;;
50880;SDS011;36858;47.832;-3.800;2024-02-23T14:30:23;4.00;;;1.00;;
50880;SDS011;36858;47.832;-3.800;2024-02-23T14:32:50;5.50;;;1.03;;
50880;SDS011;36858;47.832;-3.800;2024-02-23T14:35:17;3.77;;;1.40;;
50880;SDS011;36858;47.832;-3.800;2024-02-23T14:37:44;3.97;;;1.63;;